北京 の空港の天気 - METARとTAF

北京首都国際空港 ( ZBAA / PEK ) - 中華人民共和国 北京市
飛行場実況気象(Metar)
観測時間01/20 09:30 CST (01/20 01:30 UTC)
風向・風速北北東 3m/s
視程10km以上
天気現象
なし
気温-7℃
湿度35%
気圧1037hPa
METARZBAA 200130Z 02003MPS 350V060 CAVOK M07/M20 Q1037 NOSIG
過去の天気等 Google飛行場航空写真 Wunderground天気予報

過去48時間のMETAR

飛行場予報(TAF)
発表時間: 1/20 05:20 CST (1/19 21:20 UTC)
予報対象時間: 20日8時 CST ~ 21日8時 CST
風向・風速北北西 4m/s
視程10km以上
なし
TAF ZBAA 192120Z 2000/2024 33004MPS CAVOK TX00/2007Z TNM09/00Z